createdAt,value
2018-05-21T00:02:12.350Z,101949.13
2018-05-21T00:04:39.097Z,101942.63
2018-05-21T00:07:05.912Z,101943.23
2018-05-21T00:09:31.737Z,101940.75
2018-05-21T00:11:57.549Z,101944.13
2018-05-21T00:14:23.496Z,101939.63
2018-05-21T00:16:49.478Z,101933.42
2018-05-21T00:19:15.394Z,101934.72
2018-05-21T00:21:42.214Z,101929.96
2018-05-21T00:24:09.054Z,101929.09
2018-05-21T00:26:34.928Z,101926.51
2018-05-21T00:29:00.963Z,101925.41
2018-05-21T00:31:26.774Z,101922.44
2018-05-21T00:33:54.132Z,101921.39
2018-05-21T00:36:20.033Z,101923.91
2018-05-21T00:38:46.029Z,101926.14
2018-05-21T00:41:11.913Z,101923.75
2018-05-21T00:43:38.594Z,101923.61
2018-05-21T00:46:04.457Z,101929.05
2018-05-21T00:48:31.200Z,101925.80
2018-05-21T00:51:00.128Z,101931.14
2018-05-21T00:53:25.981Z,101927.81
2018-05-21T00:55:51.796Z,101926.31
2018-05-21T00:58:17.827Z,101925.41
2018-05-21T01:00:43.721Z,101925.52
2018-05-21T01:03:09.576Z,101924.05
2018-05-21T01:05:35.380Z,101927.31
2018-05-21T01:08:02.441Z,101927.77
2018-05-21T01:10:28.248Z,101926.45
2018-05-21T01:12:54.097Z,101929.33
2018-05-21T01:15:19.916Z,101921.32
2018-05-21T01:17:46.085Z,101921.44
2018-05-21T01:20:11.894Z,101920.72
2018-05-21T01:22:37.808Z,101920.00
2018-05-21T01:25:03.616Z,101921.56
2018-05-21T01:27:29.492Z,101917.66
2018-05-21T01:29:55.297Z,101919.48
2018-05-21T01:32:21.269Z,101914.64
2018-05-21T01:34:47.276Z,101927.94
2018-05-21T01:37:13.090Z,101924.39
2018-05-21T01:39:38.960Z,101924.11
2018-05-21T01:42:08.952Z,101924.09
2018-05-21T01:44:35.704Z,101927.83
2018-05-21T01:47:01.575Z,101928.02
2018-05-21T01:49:27.388Z,101931.79
2018-05-21T01:51:53.233Z,101930.88
2018-05-21T01:54:19.045Z,101933.83
2018-05-21T01:56:45.771Z,101932.27
2018-05-21T01:59:12.569Z,101930.82
2018-05-21T02:01:39.220Z,101932.70
2018-05-21T02:04:05.228Z,101928.97
2018-05-21T02:06:31.033Z,101926.86
2018-05-21T02:08:57.929Z,101924.83
2018-05-21T02:11:23.740Z,101920.12
2018-05-21T02:13:50.472Z,101920.61
2018-05-21T02:16:17.196Z,101922.16
2018-05-21T02:18:43.132Z,101918.45
2018-05-21T02:21:16.857Z,101933.47
2018-05-21T02:23:42.964Z,101924.75
2018-05-21T02:26:08.853Z,101918.81
2018-05-21T02:28:34.696Z,101919.63
2018-05-21T02:31:00.833Z,101925.60
2018-05-21T02:33:27.610Z,101920.08
2018-05-21T02:35:53.452Z,101918.74
2018-05-21T02:38:20.369Z,101923.02
2018-05-21T02:40:47.157Z,101918.45
2018-05-21T02:43:13.810Z,101916.22
2018-05-21T02:45:41.296Z,101908.98
2018-05-21T02:48:07.665Z,101916.22
2018-05-21T02:50:33.469Z,101912.84
2018-05-21T02:53:00.241Z,101915.78
2018-05-21T02:55:27.156Z,101913.34
2018-05-21T02:57:53.121Z,101910.73
2018-05-21T03:00:19.009Z,101908.69
2018-05-21T03:02:44.820Z,101911.45
2018-05-21T03:05:13.452Z,101905.98
2018-05-21T03:07:39.265Z,101910.08
2018-05-21T03:10:08.746Z,101908.41
2018-05-21T03:12:34.888Z,101910.57
2018-05-21T03:15:00.688Z,101907.73
2018-05-21T03:17:26.493Z,101907.75
2018-05-21T03:19:52.296Z,101909.80
2018-05-21T03:22:18.821Z,101908.45
2018-05-21T03:24:44.726Z,101907.20
2018-05-21T03:27:10.533Z,101915.02
2018-05-21T03:29:36.339Z,101908.41
2018-05-21T03:32:02.986Z,101909.55
2018-05-21T03:34:29.756Z,101914.48
2018-05-21T03:36:55.561Z,101915.20
2018-05-21T03:39:21.852Z,101919.83
2018-05-21T03:41:47.729Z,101913.77
2018-05-21T03:44:13.532Z,101914.89
2018-05-21T03:46:39.332Z,101913.73
2018-05-21T03:49:05.256Z,101907.31
2018-05-21T03:51:31.820Z,101911.28
2018-05-21T03:53:57.625Z,101907.14
2018-05-21T03:56:23.480Z,101910.91
2018-05-21T03:58:55.556Z,101910.87
2018-05-21T04:01:27.436Z,101911.52
2018-05-21T04:03:54.629Z,101910.15
2018-05-21T04:06:20.440Z,101907.68
2018-05-21T04:08:46.248Z,101915.86
2018-05-21T04:11:12.680Z,101910.91
2018-05-21T04:13:38.584Z,101910.52
2018-05-21T04:16:04.884Z,101908.84
2018-05-21T04:18:31.488Z,101915.92
2018-05-21T04:20:57.429Z,101916.09
2018-05-21T04:23:23.299Z,101917.45
2018-05-21T04:25:49.109Z,101923.03
2018-05-21T04:28:14.917Z,101918.33
2018-05-21T04:30:40.723Z,101929.22
2018-05-21T04:33:06.528Z,101932.30
2018-05-21T04:35:32.486Z,101925.54
2018-05-21T04:37:58.569Z,101925.06
2018-05-21T04:40:24.484Z,101918.16
2018-05-21T04:42:50.293Z,101923.81
2018-05-21T04:45:20.641Z,101923.16
2018-05-21T04:47:51.275Z,101918.58
2018-05-21T04:50:17.187Z,101921.23
2018-05-21T04:52:42.992Z,101927.25
2018-05-21T04:55:10.945Z,101928.57
2018-05-21T04:57:36.852Z,101925.14
2018-05-21T05:00:02.686Z,101925.26
2018-05-21T05:02:28.494Z,101927.78
2018-05-21T05:04:54.749Z,101919.53
2018-05-21T05:07:20.604Z,101922.49
2018-05-21T05:09:46.461Z,101921.98
2018-05-21T05:12:13.084Z,101926.64
2018-05-21T05:14:38.992Z,101923.98
2018-05-21T05:17:06.568Z,101920.47
2018-05-21T05:19:32.435Z,101917.40
2018-05-21T05:21:58.309Z,101911.53
2018-05-21T05:24:25.652Z,101915.55
2018-05-21T05:26:52.119Z,101910.27
2018-05-21T05:29:19.226Z,101913.56
2018-05-21T05:31:45.134Z,101917.71
2018-05-21T05:34:11.066Z,101918.78
2018-05-21T05:36:37.083Z,101918.44
2018-05-21T05:39:04.222Z,101913.84
2018-05-21T05:41:31.041Z,101917.34
2018-05-21T05:43:57.896Z,101910.66
2018-05-21T05:46:24.596Z,101915.12
2018-05-21T05:48:50.466Z,101916.91
2018-05-21T05:51:17.264Z,101907.81
2018-05-21T05:53:43.081Z,101906.52
2018-05-21T05:56:08.893Z,101911.96
2018-05-21T05:58:34.765Z,101909.73
2018-05-21T06:01:02.662Z,101912.38
2018-05-21T06:03:28.489Z,101907.19
2018-05-21T06:05:54.369Z,101905.24
2018-05-21T06:08:20.868Z,101907.61
2018-05-21T06:10:46.689Z,101901.58
2018-05-21T06:13:12.505Z,101895.34
2018-05-21T06:15:38.389Z,101905.04
2018-05-21T06:18:04.277Z,101899.31
2018-05-21T06:20:30.501Z,101896.12
2018-05-21T06:22:56.301Z,101899.74
2018-05-21T06:25:23.276Z,101893.30
2018-05-21T06:27:49.126Z,101893.26
2018-05-21T06:30:15.004Z,101890.47
2018-05-21T06:32:40.860Z,101894.95
2018-05-21T06:35:07.548Z,101890.25
2018-05-21T06:37:34.035Z,101894.31
2018-05-21T06:39:59.893Z,101887.22
2018-05-21T06:42:25.700Z,101882.17
2018-05-21T06:44:51.526Z,101880.87
2018-05-21T06:47:17.336Z,101879.81
2018-05-21T06:49:43.145Z,101877.80
2018-05-21T06:52:08.962Z,101880.11
2018-05-21T06:54:35.666Z,101874.13
2018-05-21T06:57:02.411Z,101882.50
2018-05-21T06:59:28.565Z,101876.30
2018-05-21T07:01:54.673Z,101877.06
2018-05-21T07:04:20.476Z,101876.58
2018-05-21T07:06:46.301Z,101877.58
2018-05-21T07:09:12.122Z,101864.66
2018-05-21T07:11:38.398Z,101866.88
2018-05-21T07:14:04.256Z,101863.59
2018-05-21T07:16:30.162Z,101860.28
2018-05-21T07:18:56.006Z,101859.45
2018-05-21T07:21:21.872Z,101859.13
2018-05-21T07:23:47.724Z,101857.66
2018-05-21T07:26:13.529Z,101852.20
2018-05-21T07:28:40.314Z,101847.36
2018-05-21T07:31:06.118Z,101846.37
2018-05-21T07:33:32.220Z,101847.09
2018-05-21T07:35:58.950Z,101842.11
2018-05-21T07:38:24.793Z,101837.09
2018-05-21T07:40:51.820Z,101836.61
2018-05-21T07:43:18.644Z,101839.41
2018-05-21T07:45:44.900Z,101834.59
2018-05-21T07:48:10.715Z,101831.91
2018-05-21T07:50:37.608Z,101830.05
2018-05-21T07:53:03.427Z,101823.96
2018-05-21T07:55:29.329Z,101827.45
2018-05-21T07:57:56.098Z,101825.47
2018-05-21T08:00:22.629Z,101821.08
2018-05-21T08:02:48.443Z,101823.24
2018-05-21T08:05:15.242Z,101810.66
2018-05-21T08:07:41.822Z,101815.25
2018-05-21T08:10:08.629Z,101810.53
2018-05-21T08:12:34.532Z,101803.97
2018-05-21T08:15:00.364Z,101797.77
2018-05-21T08:17:26.478Z,101796.92
2018-05-21T08:19:52.600Z,101792.85
2018-05-21T08:22:18.604Z,101797.97
2018-05-21T08:24:45.217Z,101790.92
2018-05-21T08:27:11.218Z,101789.39
2018-05-21T08:29:37.185Z,101777.02
2018-05-21T08:32:03.129Z,101781.23
2018-05-21T08:34:29.966Z,101771.47
2018-05-21T08:36:56.904Z,101772.70
2018-05-21T08:39:22.758Z,101765.21
2018-05-21T08:41:48.573Z,101762.73
2018-05-21T08:44:14.473Z,101759.06
2018-05-21T08:46:40.482Z,101752.41
2018-05-21T08:49:07.117Z,101762.56
2018-05-21T08:51:32.938Z,101754.22
2018-05-21T08:53:59.842Z,101747.36
2018-05-21T08:56:25.644Z,101752.50
2018-05-21T08:58:51.509Z,101745.52
2018-05-21T09:01:17.294Z,101742.92
2018-05-21T09:03:43.100Z,101744.89
2018-05-21T09:06:09.902Z,101743.29
2018-05-21T09:08:35.709Z,101742.27
2018-05-21T09:11:01.659Z,101736.03
2018-05-21T09:13:27.465Z,101726.34
2018-05-21T09:15:53.440Z,101736.09
2018-05-21T09:18:19.545Z,101742.00
2018-05-21T09:20:45.349Z,101730.98
2018-05-21T09:23:11.156Z,101729.56
2018-05-21T09:25:36.965Z,101734.41
2018-05-21T09:28:02.778Z,101730.04
2018-05-21T09:30:28.580Z,101729.77
2018-05-21T09:32:54.385Z,101733.11
2018-05-21T09:35:20.246Z,101723.27
2018-05-21T09:37:46.052Z,101725.52
2018-05-21T09:40:11.956Z,101722.88
2018-05-21T09:42:37.806Z,101713.60
2018-05-21T09:45:04.665Z,101715.34
2018-05-21T09:47:30.547Z,101728.09
2018-05-21T09:49:56.398Z,101715.34
2018-05-21T09:52:22.215Z,101714.84
2018-05-21T09:54:48.139Z,101708.72
2018-05-21T09:57:13.935Z,101707.22
2018-05-21T09:59:41.590Z,101711.25
2018-05-21T10:02:07.400Z,101705.38
2018-05-21T10:04:33.204Z,101697.64
2018-05-21T10:06:59.020Z,101704.35
2018-05-21T10:09:25.889Z,101691.17
2018-05-21T10:11:51.719Z,101691.77
2018-05-21T10:14:17.527Z,101685.36
2018-05-21T10:16:43.336Z,101677.08
2018-05-21T10:19:10.264Z,101676.84
2018-05-21T10:21:36.394Z,101673.68
2018-05-21T10:24:02.322Z,101661.13
2018-05-21T10:26:28.198Z,101664.02
2018-05-21T10:28:54.090Z,101660.03
2018-05-21T10:31:19.944Z,101657.15
2018-05-21T10:33:45.969Z,101652.93
2018-05-21T10:36:11.772Z,101644.20
2018-05-21T10:38:37.584Z,101635.20
2018-05-21T10:41:03.413Z,101637.22
2018-05-21T10:43:29.252Z,101633.52
2018-05-21T10:45:55.090Z,101630.17
2018-05-21T10:48:20.892Z,101627.04
2018-05-21T10:50:47.704Z,101620.88
2018-05-21T10:53:13.684Z,101623.55
2018-05-21T10:55:39.490Z,101621.45
2018-05-21T10:58:05.332Z,101616.02
2018-05-21T11:00:31.163Z,101611.91
2018-05-21T11:02:56.969Z,101609.80
2018-05-21T11:05:23.565Z,101609.52
2018-05-21T11:07:50.264Z,101603.53
2018-05-21T11:10:16.113Z,101610.55
2018-05-21T11:12:41.915Z,101604.92
2018-05-21T11:15:08.798Z,101603.51
2018-05-21T11:17:34.649Z,101602.63
2018-05-21T11:20:01.033Z,101595.66
2018-05-21T11:22:26.976Z,101588.95
2018-05-21T11:24:52.820Z,101591.40
2018-05-21T11:27:18.629Z,101589.56
2018-05-21T11:29:44.501Z,101573.28
2018-05-21T11:32:10.313Z,101573.28
2018-05-21T11:34:36.275Z,101569.37
2018-05-21T11:37:02.933Z,101567.92
2018-05-21T11:39:29.824Z,101553.13
2018-05-21T11:41:56.549Z,101550.17
2018-05-21T11:44:22.360Z,101561.20
2018-05-21T11:46:48.174Z,101552.48
2018-05-21T11:49:14.042Z,101550.11
2018-05-21T11:51:39.908Z,101540.59
2018-05-21T11:54:06.608Z,101533.38
2018-05-21T11:56:33.296Z,101536.23
2018-05-21T11:58:59.140Z,101537.08
2018-05-21T12:01:24.966Z,101533.80
2018-05-21T12:03:51.746Z,101526.13
2018-05-21T12:06:18.648Z,101519.06
2018-05-21T12:08:45.309Z,101516.11
2018-05-21T12:11:11.110Z,101520.70
2018-05-21T12:13:38.004Z,101511.78
2018-05-21T12:16:03.729Z,101510.12
2018-05-21T12:18:30.521Z,101505.05
2018-05-21T12:20:56.389Z,101502.76
2018-05-21T12:23:23.036Z,101494.33
2018-05-21T12:25:50.452Z,101510.02
2018-05-21T12:28:16.266Z,101493.76
2018-05-21T12:30:42.926Z,101485.25
2018-05-21T12:33:09.717Z,101483.28
2018-05-21T12:35:36.478Z,101484.02
2018-05-21T12:38:02.396Z,101477.69
2018-05-21T12:40:28.184Z,101485.77
2018-05-21T12:42:54.037Z,101487.87
2018-05-21T12:45:20.874Z,101481.44
2018-05-21T12:47:46.708Z,101476.42
2018-05-21T12:50:12.516Z,101489.42
2018-05-21T12:52:38.624Z,101475.68
2018-05-21T12:55:04.425Z,101472.45
2018-05-21T12:57:30.248Z,101468.83
2018-05-21T12:59:56.055Z,101470.51
2018-05-21T13:02:21.874Z,101461.06
2018-05-21T13:04:48.551Z,101456.95
2018-05-21T13:07:15.300Z,101453.27
2018-05-21T13:09:42.021Z,101441.83
2018-05-21T13:12:07.825Z,101450.27
2018-05-21T13:14:34.753Z,101444.41
2018-05-21T13:17:00.566Z,101439.34
2018-05-21T13:19:26.421Z,101444.70
2018-05-21T13:21:53.272Z,101441.57
2018-05-21T13:24:20.160Z,101427.47
2018-05-21T13:26:46.834Z,101429.83
2018-05-21T13:29:12.641Z,101429.64
2018-05-21T13:31:38.572Z,101435.01
2018-05-21T13:34:04.393Z,101428.61
2018-05-21T13:36:30.196Z,101428.64
2018-05-21T13:38:56.066Z,101439.18
2018-05-21T13:41:21.968Z,101430.78
2018-05-21T13:43:47.776Z,101423.50
2018-05-21T13:46:13.585Z,101426.99
2018-05-21T13:48:39.450Z,101421.56
2018-05-21T13:51:06.254Z,101424.95
2018-05-21T13:53:32.062Z,101417.17
2018-05-21T13:55:57.868Z,101409.58
2018-05-21T13:58:23.673Z,101413.06
2018-05-21T14:00:49.482Z,101425.73
2018-05-21T14:03:15.288Z,101416.87
2018-05-21T14:05:41.215Z,101420.50
2018-05-21T14:08:07.029Z,101415.62
2018-05-21T14:10:32.903Z,101425.06
2018-05-21T14:12:58.713Z,101419.69
2018-05-21T14:18:10.061Z,101415.69
2018-05-21T14:20:36.117Z,101406.50
2018-05-21T14:23:01.921Z,101401.01
2018-05-21T14:25:27.725Z,101396.09
2018-05-21T14:27:53.588Z,101391.80
2018-05-21T14:30:20.364Z,101376.15
2018-05-21T14:32:46.164Z,101364.03
2018-05-21T14:35:12.868Z,101376.44
2018-05-21T14:37:38.714Z,101371.44
2018-05-21T14:40:04.516Z,101362.48
2018-05-21T14:42:31.402Z,101357.95
2018-05-21T14:44:58.252Z,101356.56
2018-05-21T14:47:24.094Z,101350.78
2018-05-21T14:49:50.749Z,101349.52
2018-05-21T14:52:17.577Z,101343.59
2018-05-21T14:54:44.256Z,101353.01
2018-05-21T14:57:11.068Z,101355.11
2018-05-21T14:59:36.868Z,101342.70
2018-05-21T15:02:02.771Z,101345.19
2018-05-21T15:04:28.559Z,101337.75
2018-05-21T15:06:54.361Z,101335.08
2018-05-21T15:09:20.160Z,101333.00
2018-05-21T15:11:45.994Z,101342.12
2018-05-21T15:14:11.792Z,101343.48
2018-05-21T15:16:37.648Z,101342.35
2018-05-21T15:19:03.456Z,101332.72
2018-05-21T15:21:29.256Z,101329.58
2018-05-21T15:23:55.060Z,101323.08
2018-05-21T15:26:20.862Z,101326.22
2018-05-21T15:28:47.510Z,101316.39
2018-05-21T15:31:13.321Z,101313.20
2018-05-21T15:33:39.973Z,101317.17
2018-05-21T15:36:05.860Z,101318.85
2018-05-21T15:38:32.601Z,101318.56
2018-05-21T15:40:58.431Z,101313.97
2018-05-21T15:43:25.200Z,101311.94
2018-05-21T15:45:51.979Z,101310.71
2018-05-21T15:48:17.788Z,101306.73
2018-05-21T15:50:43.585Z,101310.78
2018-05-21T15:53:10.300Z,101307.34
2018-05-21T15:55:37.073Z,101300.73
2018-05-21T15:58:02.874Z,101300.41
2018-05-21T16:00:28.676Z,101298.14
2018-05-21T16:02:55.398Z,101300.11
2018-05-21T16:05:22.224Z,101292.41
2018-05-21T16:07:48.029Z,101291.45
2018-05-21T16:10:13.828Z,101289.62
2018-05-21T16:12:40.584Z,101282.73
2018-05-21T16:15:06.429Z,101287.96
2018-05-21T16:17:32.226Z,101287.31
2018-05-21T16:19:58.196Z,101296.20
2018-05-21T16:22:24.845Z,101282.66
2018-05-21T16:24:50.644Z,101289.29
2018-05-21T16:27:16.490Z,101289.58
2018-05-21T16:29:42.287Z,101279.88
2018-05-21T16:32:08.088Z,101284.83
2018-05-21T16:34:33.888Z,101279.95
2018-05-21T16:37:00.554Z,101274.84
2018-05-21T16:39:27.345Z,101275.47
2018-05-21T16:41:53.145Z,101277.21
2018-05-21T16:44:18.945Z,101272.40
2018-05-21T16:46:44.745Z,101275.95
2018-05-21T16:49:10.545Z,101271.07
2018-05-21T16:51:36.354Z,101268.42
2018-05-21T16:54:02.163Z,101267.23
2018-05-21T16:56:27.966Z,101267.41
2018-05-21T16:58:53.771Z,101264.89
2018-05-21T17:01:19.578Z,101264.07
2018-05-21T17:03:45.448Z,101270.05
2018-05-21T17:06:11.248Z,101269.64
2018-05-21T17:08:37.188Z,101266.25
2018-05-21T17:11:02.999Z,101259.14
2018-05-21T17:13:28.828Z,101271.45
2018-05-21T17:15:54.633Z,101269.92
2018-05-21T17:18:20.464Z,101259.20
2018-05-21T17:20:46.268Z,101264.20
2018-05-21T17:23:12.180Z,101261.55
2018-05-21T17:25:37.992Z,101264.69
2018-05-21T17:28:03.807Z,101262.41
2018-05-21T17:30:29.609Z,101271.26
2018-05-21T17:32:55.488Z,101268.89
2018-05-21T17:35:21.460Z,101267.41
2018-05-21T17:37:47.240Z,101272.38
2018-05-21T17:40:13.042Z,101269.03
2018-05-21T17:42:38.884Z,101265.06
2018-05-21T17:45:04.796Z,101268.84
2018-05-21T17:47:30.642Z,101267.70
2018-05-21T17:49:56.440Z,101265.70
2018-05-21T17:52:22.246Z,101264.41
2018-05-21T17:54:48.049Z,101272.11
2018-05-21T17:57:13.849Z,101273.61
2018-05-21T17:59:39.888Z,101266.31
2018-05-21T18:02:05.688Z,101271.02
2018-05-21T18:04:31.493Z,101270.34
2018-05-21T18:06:57.296Z,101267.53
2018-05-21T18:09:23.095Z,101271.95
2018-05-21T18:11:48.935Z,101264.50
2018-05-21T18:14:14.741Z,101255.47
2018-05-21T18:16:40.559Z,101260.60
2018-05-21T18:19:06.367Z,101261.92
2018-05-21T18:21:32.336Z,101264.02
2018-05-21T18:23:58.959Z,101267.94
2018-05-21T18:26:24.820Z,101267.09
2018-05-21T18:28:51.613Z,101268.00
2018-05-21T18:31:17.526Z,101265.91
2018-05-21T18:33:43.464Z,101269.44
2018-05-21T18:36:09.265Z,101277.52
2018-05-21T18:38:35.256Z,101267.95
2018-05-21T18:41:01.360Z,101276.20
2018-05-21T18:43:27.216Z,101274.76
2018-05-21T18:45:55.402Z,101268.97
2018-05-21T18:48:21.934Z,101273.45
2018-05-21T18:50:48.161Z,101275.38
2018-05-21T18:53:14.300Z,101265.43
2018-05-21T18:55:40.329Z,101267.25
2018-05-21T18:58:06.451Z,101268.85
2018-05-21T19:00:32.460Z,101267.25
2018-05-21T19:02:58.706Z,101265.64
2018-05-21T19:05:25.118Z,101270.20
2018-05-21T19:07:51.164Z,101271.45
2018-05-21T19:10:17.292Z,101271.59
2018-05-21T19:12:43.117Z,101276.55
2018-05-21T19:15:10.022Z,101274.73
2018-05-21T19:17:35.985Z,101276.30
2018-05-21T19:20:02.941Z,101276.36
2018-05-21T19:22:29.091Z,101282.02
2018-05-21T19:24:55.248Z,101280.27
2018-05-21T19:27:22.401Z,101286.38
2018-05-21T19:29:48.458Z,101282.70
2018-05-21T19:32:14.310Z,101282.52
2018-05-21T19:34:40.303Z,101282.56
2018-05-21T19:37:06.146Z,101284.98
2018-05-21T19:39:31.962Z,101286.53
2018-05-21T19:41:58.601Z,101287.15
2018-05-21T19:44:24.504Z,101285.70
2018-05-21T19:46:50.326Z,101285.36
2018-05-21T19:49:16.350Z,101281.53
2018-05-21T19:51:42.648Z,101280.54
2018-05-21T19:54:08.505Z,101283.55
2018-05-21T19:56:35.338Z,101279.66
2018-05-21T19:59:01.368Z,101283.36
2018-05-21T20:01:27.173Z,101285.88
2018-05-21T20:03:52.981Z,101283.17
2018-05-21T20:06:19.784Z,101283.59
2018-05-21T20:08:46.574Z,101283.00
2018-05-21T20:11:12.480Z,101282.27
2018-05-21T20:13:38.378Z,101278.61
2018-05-21T20:16:04.173Z,101289.03
2018-05-21T20:18:32.853Z,101277.52
2018-05-21T20:20:58.654Z,101278.67
2018-05-21T20:23:24.965Z,101281.64
2018-05-21T20:25:50.917Z,101277.19
2018-05-21T20:28:16.845Z,101280.25
2018-05-21T20:30:42.768Z,101276.21
2018-05-21T20:33:08.682Z,101274.53
2018-05-21T20:35:34.485Z,101273.25
2018-05-21T20:38:00.289Z,101270.48
2018-05-21T20:40:26.149Z,101274.75
2018-05-21T20:42:51.923Z,101271.52
2018-05-21T20:45:17.764Z,101272.41
2018-05-21T20:47:44.661Z,101273.99
2018-05-21T20:50:11.481Z,101271.95
2018-05-21T20:52:38.188Z,101261.45
2018-05-21T20:55:04.029Z,101262.97
2018-05-21T20:57:30.841Z,101268.19
2018-05-21T20:59:57.669Z,101266.83
2018-05-21T21:02:23.545Z,101258.39
2018-05-21T21:04:49.392Z,101265.57
2018-05-21T21:07:15.189Z,101264.05
2018-05-21T21:09:40.994Z,101268.19
2018-05-21T21:12:06.801Z,101271.78
2018-05-21T21:14:32.600Z,101268.84
2018-05-21T21:16:58.397Z,101264.94
2018-05-21T21:19:24.252Z,101271.36
2018-05-21T21:21:50.094Z,101268.23
2018-05-21T21:24:15.936Z,101266.63
2018-05-21T21:26:42.594Z,101266.32
2018-05-21T21:29:08.393Z,101269.19
2018-05-21T21:31:34.228Z,101267.53
2018-05-21T21:34:00.065Z,101262.11
2018-05-21T21:36:25.869Z,101260.65
2018-05-21T21:38:51.668Z,101260.23
2018-05-21T21:41:17.504Z,101259.39
2018-05-21T21:43:44.088Z,101257.30
2018-05-21T21:46:09.889Z,101255.77
2018-05-21T21:48:36.593Z,101249.77
2018-05-21T21:51:03.369Z,101254.15
2018-05-21T21:53:29.209Z,101247.36
2018-05-21T21:55:55.008Z,101250.72
2018-05-21T21:58:20.852Z,101245.30
2018-05-21T22:00:46.693Z,101243.94
2018-05-21T22:03:12.533Z,101242.07
2018-05-21T22:05:38.328Z,101248.79
2018-05-21T22:08:04.133Z,101249.52
2018-05-21T22:10:29.931Z,101245.00
2018-05-21T22:12:55.732Z,101243.67
2018-05-21T22:15:21.533Z,101242.43
2018-05-21T22:17:47.364Z,101239.06
2018-05-21T22:20:13.168Z,101244.23
2018-05-21T22:22:38.980Z,101234.84
2018-05-21T22:25:04.825Z,101238.81
2018-05-21T22:27:30.680Z,101236.20
2018-05-21T22:29:56.571Z,101231.42
2018-05-21T22:32:23.224Z,101227.55
2018-05-21T22:34:49.026Z,101227.25
2018-05-21T22:37:14.833Z,101227.60
2018-05-21T22:39:40.664Z,101227.92
2018-05-21T22:42:06.505Z,101226.13
2018-05-21T22:44:38.515Z,101218.52
2018-05-21T22:47:05.364Z,101218.41
2018-05-21T22:49:30.160Z,101215.92
2018-05-21T22:51:56.876Z,101216.60
2018-05-21T22:54:28.940Z,101216.12
2018-05-21T22:56:54.782Z,101218.36
2018-05-21T22:59:20.585Z,101212.58
2018-05-21T23:01:46.380Z,101210.09
2018-05-21T23:04:12.180Z,101209.98
2018-05-21T23:06:38.877Z,101208.12
2018-05-21T23:09:04.675Z,101206.47
2018-05-21T23:11:30.480Z,101203.73
2018-05-21T23:13:57.110Z,101200.59
2018-05-21T23:16:22.912Z,101197.88
2018-05-21T23:18:48.714Z,101200.05
2018-05-21T23:21:14.569Z,101198.73
2018-05-21T23:23:40.404Z,101197.41
2018-05-21T23:26:06.260Z,101188.62
2018-05-21T23:28:32.065Z,101190.55
2018-05-21T23:30:57.864Z,101194.44
2018-05-21T23:33:23.705Z,101191.91
2018-05-21T23:35:49.504Z,101193.23
2018-05-21T23:38:15.304Z,101185.56
2018-05-21T23:40:41.117Z,101188.24
2018-05-21T23:43:06.920Z,101186.98
2018-05-21T23:45:32.724Z,101183.81
2018-05-21T23:47:58.700Z,101186.03
2018-05-21T23:50:24.568Z,101184.45
2018-05-21T23:52:50.448Z,101184.11
2018-05-21T23:55:16.245Z,101182.23
2018-05-21T23:57:42.054Z,101185.08
